Time;durP1;ratioP1;P1;durP2;ratioP2;P2;SDS_P1;SDS_P2;PMS_P1;PMS_P2;Temp;Humidity;BMP_temperature;BMP_pressure;BME280_temperature;BME280_humidity;BME280_pressure;Samples;Min_cycle;Max_cycle;Signal;HPM_P1;HPM_P2
2022/10/26 00:00:40;;;;;;;13.52;6.97;;;21.10;72.20;;;;;;4996925;27;87599;-87
2022/10/26 00:03:06;;;;;;;14.77;6.63;;;21.10;72.00;;;;;;4996923;27;87320;-87
2022/10/26 00:05:33;;;;;;;17.17;7.57;;;21.10;72.10;;;;;;4997133;28;89410;-87
2022/10/26 00:07:59;;;;;;;15.63;7.38;;;21.10;72.10;;;;;;4994861;27;89236;-87
2022/10/26 00:10:25;;;;;;;15.85;6.90;;;21.10;72.00;;;;;;4997343;27;87379;-87
2022/10/26 00:12:51;;;;;;;13.70;7.10;;;21.10;71.90;;;;;;4997327;27;87421;-87
2022/10/26 00:15:20;;;;;;;12.77;6.50;;;21.10;72.00;;;;;;4995639;27;89083;-86
2022/10/26 00:17:47;;;;;;;15.18;6.30;;;21.10;72.20;;;;;;4995649;28;91623;-86
2022/10/26 00:20:13;;;;;;;15.38;7.28;;;21.10;72.10;;;;;;4996376;27;87327;-87
2022/10/26 00:22:39;;;;;;;16.17;6.45;;;21.10;72.30;;;;;;4996357;27;87367;-87
2022/10/26 00:25:06;;;;;;;12.38;6.40;;;21.10;72.20;;;;;;4995913;27;88660;-87
2022/10/26 00:27:33;;;;;;;11.95;5.95;;;21.10;72.20;;;;;;4996080;27;88279;-87
2022/10/26 00:30:00;;;;;;;17.35;7.25;;;21.10;72.00;;;;;;4997129;28;88547;-87
2022/10/26 00:32:25;;;;;;;13.00;6.78;;;21.10;72.20;;;;;;4995301;28;93542;-87
2022/10/26 00:34:51;;;;;;;15.27;6.55;;;21.10;72.30;;;;;;4993779;27;92151;-86
2022/10/26 00:37:17;;;;;;;11.70;5.80;;;21.10;72.20;;;;;;4996300;27;88926;-87
2022/10/26 00:39:42;;;;;;;14.05;6.63;;;21.10;72.20;;;;;;4996773;27;87333;-87
2022/10/26 00:42:20;;;;;;;13.55;6.72;;;21.10;72.30;;;;;;4996812;27;87511;-86
2022/10/26 00:44:45;;;;;;;15.02;6.57;;;21.10;72.20;;;;;;4996432;28;88077;-87
2022/10/26 00:47:20;;;;;;;14.48;6.68;;;21.00;72.20;;;;;;4995705;27;87831;-86
2022/10/26 00:49:48;;;;;;;16.27;7.63;;;21.10;72.40;;;;;;5010750;27;87123;-87
2022/10/26 00:52:16;;;;;;;14.03;6.53;;;21.00;72.30;;;;;;4995187;28;94550;-86
2022/10/26 00:54:42;;;;;;;13.15;6.50;;;21.00;72.30;;;;;;4995237;27;88990;-86
2022/10/26 00:57:09;;;;;;;14.90;6.85;;;21.00;72.10;;;;;;4994807;27;89351;-86
2022/10/26 00:59:34;;;;;;;13.52;6.85;;;21.10;72.00;;;;;;4997106;28;87196;-87
2022/10/26 01:02:00;;;;;;;12.07;6.53;;;21.00;72.10;;;;;;4995736;27;87367;-87
2022/10/26 01:04:26;;;;;;;13.05;6.10;;;21.00;72.10;;;;;;4994522;28;89296;-87
2022/10/26 01:06:52;;;;;;;15.10;6.13;;;21.00;72.00;;;;;;4994273;28;89706;-86
2022/10/26 01:09:19;;;;;;;13.10;6.35;;;21.00;72.10;;;;;;4996002;27;87444;-87
2022/10/26 01:11:45;;;;;;;12.65;6.20;;;21.00;72.00;;;;;;4997134;28;86727;-86
2022/10/26 01:14:15;;;;;;;11.20;5.85;;;21.00;71.90;;;;;;4996037;27;87549;-87
2022/10/26 01:16:56;;;;;;;12.20;6.28;;;21.00;72.00;;;;;;4995081;27;88430;-86
2022/10/26 01:19:56;;;;;;;12.25;6.30;;;21.00;72.00;;;;;;4995036;27;88185;-87
2022/10/26 01:22:43;;;;;;;12.23;5.93;;;21.00;72.00;;;;;;4973452;28;87523;-87
2022/10/26 01:25:58;;;;;;;11.82;5.72;;;21.00;72.00;;;;;;4972957;28;88359;-86
2022/10/26 01:28:51;;;;;;;12.85;6.65;;;21.00;72.00;;;;;;4972809;28;88102;-87
2022/10/26 01:31:24;;;;;;;10.32;5.47;;;21.00;72.00;;;;;;4972630;28;88565;-87
2022/10/26 01:33:58;;;;;;;13.35;6.53;;;21.00;72.00;;;;;;4972200;28;87299;-87
2022/10/26 01:36:23;;;;;;;13.35;6.05;;;21.00;72.00;;;;;;4972882;28;87341;-88
2022/10/26 01:38:57;;;;;;;12.52;5.75;;;21.00;72.10;;;;;;4973888;28;88370;-86
2022/10/26 01:41:35;;;;;;;12.43;6.03;;;21.00;71.90;;;;;;4973031;28;87275;-86
2022/10/26 01:44:08;;;;;;;11.20;5.82;;;21.00;71.90;;;;;;4981237;28;90408;-87
2022/10/26 01:46:41;;;;;;;10.23;5.90;;;21.00;72.00;;;;;;4972524;28;88821;-87
2022/10/26 01:49:10;;;;;;;12.38;6.07;;;21.00;72.20;;;;;;4956272;28;91205;-86
2022/10/26 01:51:39;;;;;;;10.57;5.95;;;21.00;72.10;;;;;;4972583;28;87403;-86
2022/10/26 01:54:05;;;;;;;11.10;5.43;;;21.00;72.00;;;;;;4972935;28;87272;-86
2022/10/26 01:56:35;;;;;;;12.70;5.97;;;20.90;72.00;;;;;;4972884;28;88561;-87
2022/10/26 01:59:22;;;;;;;11.55;6.05;;;21.00;72.10;;;;;;4985317;28;88341;-86
2022/10/26 02:01:49;;;;;;;9.60;5.30;;;20.90;72.20;;;;;;4993322;28;87632;-87
2022/10/26 02:04:21;;;;;;;10.30;5.32;;;20.90;72.10;;;;;;4995420;27;87694;-86
2022/10/26 02:07:18;;;;;;;11.13;5.45;;;20.90;72.10;;;;;;4995004;27;88564;-86
2022/10/26 02:09:51;;;;;;;9.20;5.40;;;20.90;72.00;;;;;;4994785;27;88289;-87
2022/10/26 02:12:35;;;;;;;10.23;5.57;;;20.90;72.10;;;;;;4994515;27;88277;-87
2022/10/26 02:15:30;;;;;;;9.90;4.95;;;20.90;71.90;;;;;;4994228;27;87671;-87
2022/10/26 02:18:02;;;;;;;10.13;5.45;;;20.90;71.90;;;;;;4995600;28;88644;-87
2022/10/26 02:20:33;;;;;;;12.07;6.15;;;20.80;71.90;;;;;;4994117;28;95533;-87
2022/10/26 02:23:03;;;;;;;11.75;5.63;;;20.90;71.90;;;;;;4994555;27;86939;-86
2022/10/26 02:25:32;;;;;;;11.82;5.63;;;20.90;71.90;;;;;;4994277;27;87427;-87
2022/10/26 02:28:06;;;;;;;10.95;5.70;;;20.90;72.00;;;;;;4993307;27;91465;-87
2022/10/26 02:30:33;;;;;;;10.18;5.50;;;20.90;71.90;;;;;;4995006;27;89041;-87
2022/10/26 02:33:00;;;;;;;11.50;5.40;;;20.90;71.90;;;;;;4998527;27;87837;-84
2022/10/26 02:35:29;;;;;;;9.88;5.10;;;20.90;71.90;;;;;;4999227;28;87336;-87
2022/10/26 02:37:57;;;;;;;10.05;5.68;;;20.90;71.70;;;;;;4997294;27;89613;-87
2022/10/26 02:40:25;;;;;;;8.75;4.93;;;20.90;71.90;;;;;;4997510;27;89474;-87
2022/10/26 02:42:52;;;;;;;10.50;5.60;;;20.90;71.90;;;;;;4998267;27;87706;-86
2022/10/26 02:45:26;;;;;;;10.90;5.32;;;20.90;71.90;;;;;;4997541;27;87480;-87
2022/10/26 02:47:53;;;;;;;9.82;4.90;;;20.90;71.80;;;;;;4997613;28;88464;-87
2022/10/26 02:50:22;;;;;;;10.20;5.50;;;20.90;72.00;;;;;;4997972;27;87781;-86
2022/10/26 02:53:11;;;;;;;;;;;20.90;71.90;;;;;;4998051;27;87436;-87
2022/10/26 02:55:43;;;;;;;9.93;5.53;;;20.90;71.90;;;;;;4999982;27;87400;-87
2022/10/26 02:58:15;;;;;;;9.30;5.70;;;20.90;71.90;;;;;;4996855;27;89629;-86
2022/10/26 03:00:42;;;;;;;10.63;5.25;;;20.90;71.80;;;;;;4997992;27;87340;-86
2022/10/26 03:03:08;;;;;;;10.23;5.32;;;20.90;71.90;;;;;;4997442;27;88281;-87
2022/10/26 03:05:35;;;;;;;11.70;6.07;;;20.90;71.80;;;;;;4998580;28;87468;-86
2022/10/26 03:08:02;;;;;;;10.45;5.13;;;20.90;71.70;;;;;;4997391;27;88455;-87
2022/10/26 03:10:27;;;;;;;9.88;5.28;;;20.90;71.90;;;;;;4997542;27;88439;-87
2022/10/26 03:12:53;;;;;;;9.18;4.68;;;20.90;71.80;;;;;;4997933;27;87336;-86
2022/10/26 03:15:19;;;;;;;10.02;5.43;;;20.80;71.90;;;;;;4997291;27;88243;-87
2022/10/26 03:17:45;;;;;;;10.40;4.57;;;20.90;71.90;;;;;;5030069;28;88659;-86
2022/10/26 03:20:11;;;;;;;10.30;5.32;;;20.90;71.90;;;;;;4996967;28;91844;-86
2022/10/26 03:22:36;;;;;;;10.15;5.10;;;20.80;71.80;;;;;;4997907;27;87035;-87
2022/10/26 03:25:03;;;;;;;9.73;4.93;;;20.90;71.80;;;;;;4997377;27;87528;-86
2022/10/26 03:27:28;;;;;;;7.70;4.72;;;20.80;71.70;;;;;;4996454;27;90342;-87
2022/10/26 03:29:54;;;;;;;9.05;4.68;;;20.90;71.60;;;;;;4997570;28;88988;-87
2022/10/26 03:32:20;;;;;;;9.10;4.82;;;20.80;71.60;;;;;;4998378;27;87080;-87
2022/10/26 03:34:45;;;;;;;9.05;4.78;;;20.80;71.60;;;;;;5013062;27;90280;-87
2022/10/26 03:37:11;;;;;;;9.98;4.90;;;20.80;71.60;;;;;;4996738;27;88694;-86
2022/10/26 03:39:37;;;;;;;9.30;4.82;;;20.80;71.60;;;;;;4997030;27;88299;-87
2022/10/26 03:42:02;;;;;;;9.35;4.57;;;20.80;71.50;;;;;;4997114;27;87311;-86
2022/10/26 03:44:28;;;;;;;7.97;4.65;;;20.80;71.50;;;;;;4998694;28;86509;-86
2022/10/26 03:46:53;;;;;;;8.98;4.80;;;20.80;71.60;;;;;;4996995;27;88543;-86
2022/10/26 03:49:19;;;;;;;8.60;4.68;;;20.80;71.70;;;;;;4997427;27;89170;-86
2022/10/26 03:51:45;;;;;;;9.93;4.70;;;20.80;71.70;;;;;;4996756;27;87915;-87
2022/10/26 03:54:10;;;;;;;9.38;4.88;;;20.80;71.60;;;;;;4997388;28;88057;-87
2022/10/26 03:56:36;;;;;;;10.02;5.07;;;20.80;71.60;;;;;;4997250;28;88694;-86
2022/10/26 03:59:01;;;;;;;9.35;5.18;;;20.80;71.70;;;;;;4996632;27;89471;-86
2022/10/26 04:01:27;;;;;;;9.35;4.88;;;20.80;71.60;;;;;;4997216;27;86876;-86
2022/10/26 04:03:52;;;;;;;8.88;5.13;;;20.80;71.50;;;;;;4997065;27;87345;-86
2022/10/26 04:06:18;;;;;;;7.93;4.65;;;20.80;71.60;;;;;;4995196;27;91735;-87
2022/10/26 04:08:43;;;;;;;7.93;4.38;;;20.80;71.60;;;;;;4996982;28;88959;-87
2022/10/26 04:11:09;;;;;;;9.73;5.35;;;20.80;71.40;;;;;;4997297;27;88010;-87
2022/10/26 04:13:35;;;;;;;8.75;4.65;;;20.80;71.60;;;;;;4997319;27;87752;-87
2022/10/26 04:16:00;;;;;;;10.63;4.95;;;20.80;71.50;;;;;;4993865;27;91802;-86
2022/10/26 04:18:26;;;;;;;9.63;5.03;;;20.80;71.60;;;;;;4995044;27;91559;-87
2022/10/26 04:20:51;;;;;;;9.40;4.38;;;20.80;71.50;;;;;;4997747;28;87110;-86
2022/10/26 04:23:19;;;;;;;7.00;4.45;;;20.80;71.70;;;;;;4996545;27;87143;-87
2022/10/26 04:25:45;;;;;;;9.40;5.00;;;20.80;71.70;;;;;;4996682;27;87762;-87
2022/10/26 04:28:12;;;;;;;7.30;4.22;;;20.70;71.60;;;;;;4996730;27;88076;-86
2022/10/26 04:30:38;;;;;;;8.18;4.47;;;20.80;71.40;;;;;;4997099;27;86998;-86
2022/10/26 04:33:05;;;;;;;8.02;4.28;;;20.80;71.30;;;;;;4996913;27;86828;-87
2022/10/26 04:35:31;;;;;;;8.07;4.65;;;20.80;71.60;;;;;;4996675;28;88370;-86
2022/10/26 04:38:02;;;;;;;9.50;4.93;;;20.80;71.50;;;;;;4995958;27;87547;-87
2022/10/26 04:40:29;;;;;;;8.48;4.53;;;20.80;71.60;;;;;;4996083;27;87909;-87
2022/10/26 04:42:55;;;;;;;9.68;4.60;;;20.80;71.50;;;;;;4996794;27;87712;-87
2022/10/26 04:45:21;;;;;;;8.27;4.57;;;20.70;71.40;;;;;;4996037;27;88558;-87
2022/10/26 04:47:46;;;;;;;6.82;4.20;;;20.80;71.40;;;;;;4997128;28;88780;-87
2022/10/26 04:50:12;;;;;;;7.18;4.18;;;20.80;71.70;;;;;;4995538;27;87081;-87
2022/10/26 04:52:38;;;;;;;8.30;4.93;;;20.80;71.50;;;;;;4993939;27;90094;-86
2022/10/26 04:55:05;;;;;;;8.27;4.35;;;20.80;71.40;;;;;;4995462;27;88116;-87
2022/10/26 04:57:32;;;;;;;8.40;4.65;;;20.70;71.40;;;;;;4996541;27;89706;-87
2022/10/26 04:59:59;;;;;;;8.45;4.50;;;20.70;71.40;;;;;;4995456;28;87797;-86
2022/10/26 05:02:26;;;;;;;7.55;4.32;;;20.80;71.50;;;;;;4996377;28;92609;-86
2022/10/26 05:04:51;;;;;;;7.80;3.97;;;20.80;71.30;;;;;;4994892;27;88939;-87
2022/10/26 05:07:17;;;;;;;6.40;3.95;;;20.70;71.40;;;;;;4995827;27;88670;-86
2022/10/26 05:09:42;;;;;;;8.32;4.30;;;20.70;71.40;;;;;;4996306;27;86837;-87
2022/10/26 05:12:08;;;;;;;8.63;4.18;;;20.70;71.30;;;;;;4995604;27;87327;-86
2022/10/26 05:14:34;;;;;;;8.70;4.35;;;20.70;71.30;;;;;;4996264;28;88530;-87
2022/10/26 05:16:59;;;;;;;7.57;4.13;;;20.70;71.50;;;;;;4994745;27;88769;-86
2022/10/26 05:19:25;;;;;;;7.35;4.45;;;20.70;71.40;;;;;;4995778;27;86922;-86
2022/10/26 05:21:52;;;;;;;7.22;4.20;;;20.70;71.40;;;;;;4995571;27;87343;-86
2022/10/26 05:24:18;;;;;;;8.23;4.13;;;20.70;71.30;;;;;;4994971;27;88302;-86
2022/10/26 05:26:43;;;;;;;7.03;4.28;;;20.70;71.50;;;;;;4996338;28;88273;-86
2022/10/26 05:29:09;;;;;;;7.55;4.43;;;20.80;71.60;;;;;;5009231;27;88328;-86
2022/10/26 05:31:34;;;;;;;8.98;4.50;;;20.80;71.40;;;;;;4994878;27;87528;-87
2022/10/26 05:34:00;;;;;;;8.38;4.20;;;20.80;71.20;;;;;;4995331;27;88748;-86
2022/10/26 05:36:26;;;;;;;5.45;3.72;;;20.80;71.10;;;;;;4995301;27;87890;-87
2022/10/26 05:38:51;;;;;;;7.78;4.28;;;20.70;71.10;;;;;;4996710;28;87037;-87
2022/10/26 05:41:17;;;;;;;7.53;3.88;;;20.70;71.20;;;;;;4995216;27;87204;-85
2022/10/26 05:43:45;;;;;;;8.27;4.18;;;20.70;71.20;;;;;;4993633;28;88484;-87
2022/10/26 05:46:11;;;;;;;7.45;4.03;;;20.70;71.00;;;;;;4995984;27;87442;-87
2022/10/26 05:48:36;;;;;;;7.53;3.92;;;20.70;71.20;;;;;;4995457;27;87406;-87
2022/10/26 05:51:02;;;;;;;6.97;4.15;;;20.70;71.10;;;;;;4995070;27;87931;-87
2022/10/26 05:53:28;;;;;;;7.75;4.60;;;20.70;71.10;;;;;;4995195;28;89202;-87
2022/10/26 05:55:55;;;;;;;7.22;4.05;;;20.70;71.20;;;;;;4994097;27;89010;-86
2022/10/26 05:58:20;;;;;;;9.40;4.15;;;20.70;71.10;;;;;;4994565;27;87405;-87
2022/10/26 06:01:06;;;;;;;7.15;4.10;;;20.70;71.00;;;;;;4994922;27;87448;-87
2022/10/26 06:03:50;;;;;;;5.65;3.33;;;20.70;71.20;;;;;;4994410;27;87727;-86
2022/10/26 06:06:16;;;;;;;8.02;4.03;;;20.70;71.00;;;;;;4994468;27;87799;-86
2022/10/26 06:08:42;;;;;;;8.77;4.03;;;20.70;71.30;;;;;;4995723;28;87360;-86
2022/10/26 06:11:08;;;;;;;7.15;4.20;;;20.70;71.20;;;;;;4995242;27;86443;-86
2022/10/26 06:13:34;;;;;;;8.00;4.20;;;20.70;71.10;;;;;;4995086;27;87330;-87
2022/10/26 06:16:22;;;;;;;6.43;3.75;;;20.70;71.10;;;;;;4994035;27;87399;-86
2022/10/26 06:19:15;;;;;;;7.13;4.03;;;20.70;71.00;;;;;;4995041;27;88187;-86
2022/10/26 06:22:03;;;;;;;7.28;4.07;;;20.80;70.90;;;;;;4995301;27;87365;-84
2022/10/26 06:24:49;;;;;;;5.97;3.70;;;20.80;71.00;;;;;;4994618;27;88540;-87
2022/10/26 06:27:59;;;;;;;6.32;3.75;;;20.80;71.10;;;;;;4994104;27;88510;-85
2022/10/26 06:30:25;;;;;;;7.38;3.67;;;20.80;71.40;;;;;;4944257;28;87065;-85
2022/10/26 06:32:55;;;;;;;8.70;3.80;;;20.80;71.60;;;;;;4945426;28;87418;-87
2022/10/26 06:35:23;;;;;;;8.90;3.80;;;20.80;71.70;;;;;;4943958;28;88524;-86
2022/10/26 06:37:50;;;;;;;9.68;3.28;;;20.80;71.70;;;;;;4946688;28;87840;-86
2022/10/26 06:40:17;;;;;;;8.13;3.72;;;20.80;69.20;;;;;;4949376;28;87763;-87
2022/10/26 06:42:43;;;;;;;12.13;3.95;;;20.80;70.70;;;;;;4942618;28;89374;-86
2022/10/26 06:45:14;;;;;;;8.60;4.22;;;20.90;69.40;;;;;;4941984;28;91845;-87
2022/10/26 06:47:51;;;;;;;7.05;3.55;;;21.00;70.20;;;;;;4943158;28;91673;-87
2022/10/26 06:50:55;;;;;;;10.77;3.60;;;20.90;70.30;;;;;;4959112;28;87038;-87
2022/10/26 06:53:38;;;;;;;12.10;3.45;;;20.90;69.80;;;;;;4941356;28;87954;-87
2022/10/26 06:56:04;;;;;;;10.32;4.25;;;20.90;67.40;;;;;;4933589;28;91641;-88
2022/10/26 06:58:34;;;;;;;14.02;4.15;;;20.80;68.20;;;;;;4941550;28;89163;-88
2022/10/26 07:01:01;;;;;;;5.80;3.42;;;20.80;68.80;;;;;;4966139;27;87065;-87
2022/10/26 07:03:27;;;;;;;10.15;4.28;;;20.70;68.90;;;;;;4994135;27;86357;-86
2022/10/26 07:05:52;;;;;;;12.75;4.05;;;20.70;68.60;;;;;;4992856;28;88825;-87
2022/10/26 07:08:18;;;;;;;13.10;3.95;;;20.70;69.00;;;;;;4992128;27;87665;-87
2022/10/26 07:10:45;;;;;;;9.05;3.85;;;20.70;68.70;;;;;;4992342;27;87840;-87
2022/10/26 07:13:11;;;;;;;10.73;3.75;;;20.70;69.60;;;;;;4992163;27;87812;-89
2022/10/26 07:15:38;;;;;;;9.25;3.95;;;20.70;68.80;;;;;;4993200;27;88464;-86
2022/10/26 07:18:05;;;;;;;8.80;3.55;;;20.70;69.20;;;;;;4993785;27;88204;-88
2022/10/26 07:20:35;;;;;;;10.88;3.80;;;20.70;69.30;;;;;;4997388;28;87039;-88
2022/10/26 07:23:01;;;;;;;10.10;3.70;;;20.70;70.60;;;;;;4995035;28;87220;-87
2022/10/26 07:25:27;;;;;;;12.90;4.05;;;20.80;68.80;;;;;;4997058;27;88311;-86
2022/10/26 07:27:59;;;;;;;7.53;3.67;;;20.80;68.80;;;;;;4997678;27;88157;-86
2022/10/26 07:30:26;;;;;;;10.25;4.28;;;20.80;70.90;;;;;;4997185;27;88046;-87
2022/10/26 07:33:09;;;;;;;6.72;3.22;;;20.80;71.30;;;;;;4946674;27;87697;-86
2022/10/26 07:35:35;;;;;;;8.85;3.45;;;20.80;71.20;;;;;;5014615;28;94784;-87
2022/10/26 07:38:01;;;;;;;8.73;3.83;;;20.80;71.00;;;;;;4996688;27;89334;-87
2022/10/26 07:40:28;;;;;;;7.35;3.13;;;20.80;71.00;;;;;;5028960;27;87489;-86
2022/10/26 07:42:57;;;;;;;6.13;3.53;;;20.80;71.00;;;;;;4996978;27;87992;-86
2022/10/26 07:45:23;;;;;;;9.90;3.28;;;20.90;71.20;;;;;;4996593;27;87991;-86
2022/10/26 07:47:49;;;;;;;8.50;3.30;;;20.80;72.10;;;;;;4997723;28;87644;-86
2022/10/26 07:50:14;;;;;;;6.28;2.97;;;20.80;71.50;;;;;;4998383;27;88743;-86
2022/10/26 07:52:40;;;;;;;5.85;2.60;;;20.80;71.40;;;;;;4997358;27;87419;-86
2022/10/26 07:55:10;;;;;;;14.65;4.70;;;20.80;71.50;;;;;;4997236;27;87723;-86
2022/10/26 07:57:36;;;;;;;17.13;4.28;;;20.80;71.60;;;;;;4995445;28;91284;-87
2022/10/26 08:00:04;;;;;;;17.40;4.78;;;20.80;71.70;;;;;;4996970;27;88499;-86
2022/10/26 08:02:30;;;;;;;18.80;5.32;;;20.90;71.60;;;;;;4997603;28;86824;-86
2022/10/26 08:04:55;;;;;;;27.70;6.80;;;20.90;70.90;;;;;;4996472;27;88224;-87
2022/10/26 08:07:21;;;;;;;29.52;7.00;;;20.90;71.40;;;;;;4996945;27;88305;-87
2022/10/26 08:09:47;;;;;;;27.00;7.40;;;20.80;71.30;;;;;;4995421;27;87507;-87
2022/10/26 08:12:15;;;;;;;30.55;7.45;;;20.90;71.50;;;;;;4997058;27;87422;-85
2022/10/26 08:14:41;;;;;;;31.77;7.78;;;20.90;71.70;;;;;;4997696;28;88690;-86
2022/10/26 08:17:07;;;;;;;37.78;8.85;;;20.90;71.70;;;;;;4996604;27;88397;-85
2022/10/26 08:19:33;;;;;;;40.88;8.50;;;20.80;71.70;;;;;;4997280;27;87407;-87
2022/10/26 08:21:59;;;;;;;45.80;8.80;;;20.80;72.00;;;;;;4996136;27;87441;-87
2022/10/26 08:24:24;;;;;;;47.85;8.63;;;20.80;72.10;;;;;;4995849;27;90016;-86
2022/10/26 08:26:50;;;;;;;34.63;8.43;;;20.90;72.10;;;;;;4997659;28;89171;-87
2022/10/26 08:29:15;;;;;;;44.45;10.15;;;20.80;72.10;;;;;;5027410;27;87332;-86
2022/10/26 08:31:41;;;;;;;154.15;48.67;;;20.90;72.20;;;;;;4996374;27;87640;-87
2022/10/26 08:34:07;;;;;;;249.50;76.50;;;20.90;72.40;;;;;;4993916;28;90744;-87
2022/10/26 08:36:33;;;;;;;252.55;72.10;;;20.90;72.80;;;;;;4996001;27;88275;-89
2022/10/26 08:38:58;;;;;;;245.27;74.50;;;20.80;72.80;;;;;;4996062;28;87493;-88
2022/10/26 08:41:36;;;;;;;277.50;80.82;;;20.80;73.00;;;;;;4995923;27;87316;-86
2022/10/26 08:44:17;;;;;;;305.27;90.20;;;20.80;73.00;;;;;;5026893;27;90949;-87
2022/10/26 08:46:48;;;;;;;279.63;80.38;;;20.90;73.30;;;;;;4995047;27;87890;-89
2022/10/26 08:49:23;;;;;;;243.80;75.03;;;20.90;73.20;;;;;;4994199;27;88261;-87
2022/10/26 08:51:53;;;;;;;255.75;73.55;;;20.80;73.20;;;;;;4995128;27;86923;-87
2022/10/26 08:54:24;;;;;;;233.88;67.10;;;20.80;72.90;;;;;;4995574;27;87633;-86
2022/10/26 08:56:54;;;;;;;214.75;66.53;;;20.80;72.80;;;;;;4994858;28;88148;-85
2022/10/26 08:59:40;;;;;;;218.98;64.65;;;20.90;72.90;;;;;;4993589;27;87090;-87
2022/10/26 09:02:13;;;;;;;187.18;59.75;;;20.90;72.80;;;;;;4994015;28;90850;-87
2022/10/26 09:04:39;;;;;;;166.93;53.88;;;20.90;72.70;;;;;;4994647;27;87384;-86
2022/10/26 09:07:10;;;;;;;152.65;50.97;;;20.90;72.70;;;;;;4995941;27;88221;-86
2022/10/26 09:09:45;;;;;;;160.82;48.85;;;20.90;72.90;;;;;;4997326;27;87509;-88
2022/10/26 09:12:53;;;;;;;157.35;51.08;;;20.80;72.60;;;;;;4995458;27;87306;-87
2022/10/26 09:15:35;;;;;;;141.68;47.90;;;20.90;72.50;;;;;;4994295;27;89565;-88
2022/10/26 09:18:30;;;;;;;126.95;45.75;;;20.90;72.40;;;;;;4995620;27;89496;-87
2022/10/26 09:21:08;;;;;;;120.00;44.92;;;20.90;72.30;;;;;;4995385;28;87270;-87
2022/10/26 09:23:44;;;;;;;111.57;37.97;;;20.90;72.20;;;;;;4995141;28;91955;-86
2022/10/26 09:26:18;;;;;;;117.15;40.28;;;20.90;71.70;;;;;;4994981;27;88679;-88
2022/10/26 09:28:46;;;;;;;119.50;40.50;;;20.90;71.70;;;;;;4994206;27;87782;-87
2022/10/26 09:31:15;;;;;;;102.22;37.13;;;20.90;71.90;;;;;;4985311;28;87654;-86
2022/10/26 09:33:41;;;;;;;;;;;20.90;72.00;;;;;;4996095;27;87419;-88
2022/10/26 09:36:11;;;;;;;102.78;34.08;;;21.00;71.60;;;;;;4996811;27;88537;-87
2022/10/26 09:38:48;;;;;;;87.32;31.88;;;21.00;71.70;;;;;;4995118;28;88409;-87
2022/10/26 09:41:16;;;;;;;78.88;27.48;;;21.10;72.00;;;;;;4991977;27;88708;-85
2022/10/26 09:44:10;;;;;;;89.72;29.48;;;21.20;71.50;;;;;;4993787;27;87638;-85
2022/10/26 09:46:50;;;;;;;81.85;30.30;;;21.20;71.20;;;;;;4994461;27;88784;-86
2022/10/26 09:49:19;;;;;;;76.13;27.63;;;21.10;72.10;;;;;;5009642;27;90716;-86
2022/10/26 09:51:45;;;;;;;81.43;27.33;;;21.10;72.20;;;;;;4994334;27;88750;-86
2022/10/26 09:54:18;;;;;;;79.22;26.95;;;21.00;72.30;;;;;;4993455;27;90981;-85
2022/10/26 09:56:47;;;;;;;71.00;25.90;;;21.00;72.60;;;;;;4992920;28;91460;-85
2022/10/26 09:59:14;;;;;;;;;;;21.00;72.70;;;;;;4995072;27;87984;-85
2022/10/26 10:01:40;;;;;;;69.43;24.85;;;21.00;72.90;;;;;;4996601;27;87576;-85
2022/10/26 10:04:32;;;;;;;64.25;23.77;;;21.00;72.70;;;;;;4993955;27;87450;-85
2022/10/26 10:07:01;;;;;;;61.67;22.92;;;21.00;72.80;;;;;;4993231;27;89009;-85
2022/10/26 10:09:26;;;;;;;65.53;22.53;;;21.00;73.00;;;;;;4994261;27;89758;-86
2022/10/26 10:11:57;;;;;;;57.42;22.83;;;21.00;72.80;;;;;;4995069;28;87143;-85
2022/10/26 10:14:30;;;;;;;56.72;21.85;;;21.00;72.90;;;;;;4993205;28;87259;-85
2022/10/26 10:17:02;;;;;;;54.45;21.40;;;21.00;72.90;;;;;;4993913;27;88246;-85
2022/10/26 10:19:33;;;;;;;57.65;20.50;;;21.00;73.70;;;;;;4993680;27;88390;-85
2022/10/26 10:22:11;;;;;;;56.65;20.45;;;21.00;73.30;;;;;;4993737;27;86927;-87
2022/10/26 10:24:40;;;;;;;51.78;16.85;;;21.00;73.10;;;;;;4993979;27;87651;-87
2022/10/26 10:27:14;;;;;;;44.40;17.77;;;21.10;70.70;;;;;;4994121;27;89203;-87
2022/10/26 10:30:18;;;;;;;49.95;18.45;;;21.10;71.70;;;;;;4995138;28;87466;-85
2022/10/26 10:32:43;;;;;;;43.45;16.65;;;21.20;72.60;;;;;;4994098;28;88824;-85
2022/10/26 10:35:23;;;;;;;46.97;16.88;;;21.30;72.30;;;;;;4993571;27;87381;-87
2022/10/26 10:37:50;;;;;;;43.08;17.20;;;21.30;72.30;;;;;;4992778;27;88219;-87
2022/10/26 10:40:26;;;;;;;44.17;16.73;;;21.40;72.40;;;;;;4993486;27;88553;-89
2022/10/26 10:43:02;;;;;;;46.05;16.55;;;21.40;72.50;;;;;;4993691;27;87039;-88
2022/10/26 10:45:29;;;;;;;44.65;17.10;;;21.50;72.30;;;;;;4993869;27;87784;-88
2022/10/26 10:48:03;;;;;;;37.47;15.38;;;21.50;72.20;;;;;;4994833;28;87904;-88
2022/10/26 10:50:31;;;;;;;44.85;16.50;;;21.60;72.30;;;;;;4994460;28;92177;-87
2022/10/26 10:53:18;;;;;;;42.05;15.43;;;21.70;72.10;;;;;;4995763;27;87343;-87
2022/10/26 10:56:00;;;;;;;48.72;16.63;;;21.70;72.00;;;;;;4996869;27;87488;-86
2022/10/26 10:58:33;;;;;;;38.30;15.07;;;21.70;72.10;;;;;;4996997;27;89999;-87
2022/10/26 11:00:59;;;;;;;43.55;14.50;;;21.70;72.10;;;;;;4997373;27;89788;-86
2022/10/26 11:03:49;;;;;;;33.40;13.52;;;21.80;72.20;;;;;;4997520;27;87320;-86
2022/10/26 11:06:18;;;;;;;35.88;13.30;;;21.80;72.20;;;;;;4987564;27;90300;-87
2022/10/26 11:08:49;;;;;;;42.65;13.95;;;21.80;72.30;;;;;;4997937;28;88616;-85
2022/10/26 11:11:37;;;;;;;42.63;13.40;;;21.90;72.00;;;;;;4996206;27;88361;-86
2022/10/26 11:14:18;;;;;;;32.78;12.73;;;21.90;71.80;;;;;;4996774;27;87233;-87
2022/10/26 11:16:48;;;;;;;42.38;13.02;;;21.90;71.90;;;;;;4996428;27;87383;-88
2022/10/26 11:19:34;;;;;;;35.95;12.50;;;21.90;71.60;;;;;;4996151;27;89167;-87
2022/10/26 11:22:03;;;;;;;35.90;11.32;;;21.90;71.50;;;;;;4996424;27;88100;-86
2022/10/26 11:24:32;;;;;;;34.13;12.00;;;21.90;71.40;;;;;;4995056;27;87937;-86
2022/10/26 11:27:40;;;;;;;33.05;12.15;;;21.90;71.50;;;;;;4995993;28;87636;-85
2022/10/26 11:30:13;;;;;;;38.78;11.27;;;21.90;71.10;;;;;;4933572;28;93239;-85
2022/10/26 11:32:49;;;;;;;36.00;10.98;;;21.90;71.20;;;;;;4933228;28;87439;-85
2022/10/26 11:35:25;;;;;;;32.97;11.05;;;21.90;71.30;;;;;;4933364;28;87484;-86
2022/10/26 11:38:00;;;;;;;31.55;10.63;;;21.90;71.60;;;;;;4933702;28;87451;-87
2022/10/26 11:40:52;;;;;;;34.15;10.57;;;21.90;71.50;;;;;;4933696;28;88371;-87
2022/10/26 11:43:53;;;;;;;32.50;10.60;;;21.90;71.70;;;;;;4933362;28;87554;-86
2022/10/26 11:46:44;;;;;;;27.10;9.82;;;22.00;70.50;;;;;;4847611;29;87906;-85
2022/10/26 11:49:13;;;;;;;26.75;10.30;;;21.90;71.50;;;;;;4847950;29;87421;-85
2022/10/26 11:51:57;;;;;;;31.58;10.13;;;22.00;71.70;;;;;;4846761;29;88589;-85
2022/10/26 11:54:33;;;;;;;30.55;10.27;;;22.00;71.80;;;;;;4847632;29;89550;-88
2022/10/26 11:57:00;;;;;;;31.75;9.82;;;22.00;71.90;;;;;;4850009;29;86954;-88
2022/10/26 11:59:29;;;;;;;34.03;10.30;;;21.90;72.30;;;;;;4849118;29;92053;-87
2022/10/26 12:02:27;;;;;;;26.83;9.67;;;21.80;72.50;;;;;;4847234;29;89094;-87
2022/10/26 12:05:04;;;;;;;26.27;9.90;;;21.70;72.50;;;;;;4821511;29;88872;-87
2022/10/26 12:07:34;;;;;;;26.67;10.18;;;21.70;72.80;;;;;;4856807;28;87051;-88
2022/10/26 12:10:02;;;;;;;30.27;10.02;;;21.60;72.80;;;;;;4877575;28;86949;-88
2022/10/26 12:12:53;;;;;;;28.45;9.75;;;21.60;72.80;;;;;;4876876;28;90260;-89
2022/10/26 12:15:31;;;;;;;23.10;9.85;;;21.50;72.70;;;;;;4876827;28;88036;-86
2022/10/26 12:18:19;;;;;;;26.80;9.52;;;21.50;72.80;;;;;;4878207;28;88307;-85
2022/10/26 12:20:45;;;;;;;28.25;9.25;;;21.50;73.80;;;;;;4839176;29;91263;-86
2022/10/26 12:23:11;;;;;;;26.75;9.73;;;21.50;73.10;;;;;;4906046;28;88711;-86
2022/10/26 12:25:37;;;;;;;27.85;9.43;;;21.50;73.00;;;;;;4907324;28;90670;-87
2022/10/26 12:28:03;;;;;;;26.50;9.40;;;21.50;73.30;;;;;;4905799;28;87173;-88
2022/10/26 12:30:31;;;;;;;25.38;9.10;;;21.50;73.00;;;;;;4907333;28;86964;-88
2022/10/26 12:32:59;;;;;;;25.88;10.50;;;21.50;72.90;;;;;;4907240;28;88115;-88
2022/10/26 12:35:38;;;;;;;23.37;9.50;;;21.50;73.20;;;;;;4904819;28;92196;-88
2022/10/26 12:38:24;;;;;;;18.77;8.98;;;21.40;73.20;;;;;;4907342;28;87124;-88
2022/10/26 12:41:05;;;;;;;18.33;7.88;;;21.40;73.30;;;;;;4918377;28;87302;-88
2022/10/26 12:48:40;;;;;;;24.02;8.70;;;21.30;73.20;;;;;;4925725;28;87652;-88
2022/10/26 12:51:21;;;;;;;24.00;8.65;;;21.30;73.30;;;;;;4924176;28;87501;-88
2022/10/26 12:54:04;;;;;;;23.23;9.05;;;21.40;73.40;;;;;;4925419;28;88506;-86
2022/10/26 12:56:49;;;;;;;21.83;8.48;;;21.30;73.20;;;;;;4924910;28;92447;-86
2022/10/26 12:59:25;;;;;;;20.75;7.82;;;21.30;73.30;;;;;;4995647;27;87053;-86
2022/10/26 13:02:09;;;;;;;25.75;8.63;;;21.30;73.30;;;;;;4996147;27;87427;-86
2022/10/26 13:04:44;;;;;;;26.40;8.52;;;21.30;73.30;;;;;;4995490;27;88329;-85